createdAt,value
2022-08-19T00:00:39.633Z,0
2022-08-19T00:01:44.732Z,0
2022-08-19T00:02:52.693Z,0
2022-08-19T00:03:39.367Z,0
2022-08-19T00:04:40.278Z,0
2022-08-19T00:05:39.361Z,0
2022-08-19T00:06:39.625Z,0
2022-08-19T00:07:39.603Z,0
2022-08-19T00:08:45.275Z,0
2022-08-19T00:09:39.589Z,0
2022-08-19T00:10:39.591Z,0
2022-08-19T00:11:39.582Z,0
2022-08-19T00:12:52.172Z,0
2022-08-19T00:13:39.322Z,0
2022-08-19T00:14:40.273Z,0
2022-08-19T00:15:39.067Z,0
2022-08-19T00:16:39.813Z,0
2022-08-19T00:17:44.216Z,0
2022-08-19T00:18:39.547Z,0
2022-08-19T00:19:39.030Z,0
2022-08-19T00:20:39.535Z,0
2022-08-19T00:21:39.536Z,0
2022-08-19T00:22:39.018Z,0
2022-08-19T00:23:39.527Z,0
2022-08-19T00:24:40.087Z,0
2022-08-19T00:25:39.892Z,0
2022-08-19T00:26:39.760Z,0
2022-08-19T00:27:39.758Z,0
2022-08-19T00:28:42.721Z,0
2022-08-19T00:29:39.491Z,0
2022-08-19T00:30:39.486Z,0
2022-08-19T00:31:39.479Z,0
2022-08-19T00:32:41.735Z,0
2022-08-19T00:33:40.394Z,0
2022-08-19T00:34:39.215Z,0
2022-08-19T00:35:39.202Z,0
2022-08-19T00:36:39.208Z,0
2022-08-19T00:37:39.459Z,0
2022-08-19T00:38:45.065Z,0
2022-08-19T00:39:39.829Z,0
2022-08-19T00:40:39.441Z,0
2022-08-19T00:41:39.193Z,0
2022-08-19T00:42:39.439Z,0
2022-08-19T00:43:39.168Z,0
2022-08-19T00:44:39.411Z,0
2022-08-19T00:45:42.761Z,0
2022-08-19T00:46:39.407Z,0
2022-08-19T00:47:39.945Z,0
2022-08-19T00:48:39.674Z,0
2022-08-19T00:49:39.660Z,0
2022-08-19T00:50:54.617Z,0
2022-08-19T00:51:39.629Z,0
2022-08-19T00:52:38.862Z,0
2022-08-19T00:53:39.132Z,0
2022-08-19T00:54:39.170Z,0
2022-08-19T00:55:39.355Z,0
2022-08-19T00:56:38.846Z,0
2022-08-19T00:57:39.359Z,0
2022-08-19T00:58:39.348Z,0
2022-08-19T01:00:08.437Z,0
2022-08-19T01:00:39.592Z,0
2022-08-19T01:01:39.347Z,0
2022-08-19T01:02:39.331Z,0
2022-08-19T01:04:03.625Z,0
2022-08-19T01:04:39.316Z,0
2022-08-19T01:05:38.804Z,0
2022-08-19T01:06:39.309Z,0
2022-08-19T01:07:45.066Z,0
2022-08-19T01:08:39.292Z,0
2022-08-19T01:09:39.288Z,0
2022-08-19T01:10:43.071Z,0
2022-08-19T01:11:39.525Z,0
2022-08-19T01:12:39.264Z,0
2022-08-19T01:13:56.535Z,0
2022-08-19T01:14:39.000Z,0
2022-08-19T01:15:39.248Z,0
2022-08-19T01:16:39.247Z,0
2022-08-19T01:17:39.253Z,0
2022-08-19T01:18:39.498Z,0
2022-08-19T01:19:50.473Z,0
2022-08-19T01:20:39.223Z,0
2022-08-19T01:21:38.976Z,0
2022-08-19T01:22:40.463Z,0
2022-08-19T01:23:39.207Z,0
2022-08-19T01:24:52.098Z,0
2022-08-19T01:25:41.679Z,0
2022-08-19T01:26:40.134Z,0
2022-08-19T01:27:51.318Z,0
2022-08-19T01:28:47.543Z,0
2022-08-19T01:29:43.387Z,0
2022-08-19T01:30:39.185Z,0
2022-08-19T01:31:39.406Z,0
2022-08-19T01:32:40.827Z,0
2022-08-19T01:33:38.902Z,0
2022-08-19T01:34:39.148Z,0
2022-08-19T01:35:39.152Z,0
2022-08-19T01:36:39.141Z,0
2022-08-19T01:37:38.882Z,0
2022-08-19T01:38:48.729Z,0
2022-08-19T01:39:39.625Z,0
2022-08-19T01:40:38.604Z,0
2022-08-19T01:41:38.868Z,0
2022-08-19T01:42:38.594Z,0
2022-08-19T01:43:38.855Z,0
2022-08-19T01:44:38.843Z,0
2022-08-19T01:45:39.092Z,0
2022-08-19T01:46:39.471Z,0
2022-08-19T01:47:39.085Z,0
2022-08-19T01:48:38.820Z,0
2022-08-19T01:49:39.071Z,0
2022-08-19T01:50:39.071Z,0
2022-08-19T01:51:47.126Z,0
2022-08-19T01:52:39.085Z,0
2022-08-19T01:53:41.421Z,0
2022-08-19T01:54:39.300Z,0
2022-08-19T01:55:43.222Z,0
2022-08-19T01:56:39.046Z,0
2022-08-19T01:57:39.043Z,0
2022-08-19T01:58:38.774Z,0
2022-08-19T01:59:39.023Z,0
2022-08-19T02:00:38.766Z,0
2022-08-19T02:01:39.046Z,0
2022-08-19T02:02:38.489Z,0
2022-08-19T02:03:38.746Z,0
2022-08-19T02:04:38.737Z,0
2022-08-19T02:05:38.740Z,0
2022-08-19T02:06:38.983Z,0
2022-08-19T02:07:42.504Z,0
2022-08-19T02:08:38.974Z,0
2022-08-19T02:09:38.973Z,0
2022-08-19T02:10:38.969Z,0
2022-08-19T02:11:39.288Z,0
2022-08-19T02:12:42.358Z,0
2022-08-19T02:13:38.963Z,0
2022-08-19T02:14:38.943Z,0
2022-08-19T02:15:38.946Z,0
2022-08-19T02:16:39.192Z,0
2022-08-19T02:17:38.923Z,0
2022-08-19T02:18:38.668Z,0
2022-08-19T02:19:41.622Z,0
2022-08-19T02:20:38.918Z,0
2022-08-19T02:21:39.171Z,0
2022-08-19T02:22:38.648Z,0
2022-08-19T02:23:38.907Z,0
2022-08-19T02:24:38.896Z,0
2022-08-19T02:25:38.885Z,0
2022-08-19T02:26:38.943Z,0
2022-08-19T02:27:38.877Z,0
2022-08-19T02:28:38.616Z,0
2022-08-19T02:29:39.122Z,0
2022-08-19T02:30:38.602Z,0
2022-08-19T02:31:38.862Z,0
2022-08-19T02:32:48.798Z,0
2022-08-19T02:33:38.328Z,0
2022-08-19T02:34:38.838Z,0
2022-08-19T02:35:39.090Z,0
2022-08-19T02:36:44.771Z,0
2022-08-19T02:37:42.044Z,0
2022-08-19T02:38:38.317Z,0
2022-08-19T02:39:39.001Z,0
2022-08-19T02:40:38.554Z,0
2022-08-19T02:41:38.642Z,0
2022-08-19T02:42:41.518Z,0
2022-08-19T02:44:14.254Z,0
2022-08-19T02:44:40.545Z,0
2022-08-19T02:45:43.494Z,0
2022-08-19T02:46:40.282Z,0
2022-08-19T02:47:40.275Z,0
2022-08-19T02:48:40.267Z,0
2022-08-19T02:49:41.808Z,0
2022-08-19T02:50:40.013Z,0
2022-08-19T02:51:40.251Z,0
2022-08-19T02:52:40.263Z,0
2022-08-19T02:53:40.249Z,0
2022-08-19T02:54:39.726Z,0
2022-08-19T02:55:53.543Z,0
2022-08-19T02:56:40.233Z,0
2022-08-19T02:57:40.234Z,0
2022-08-19T02:58:40.757Z,0
2022-08-19T02:59:40.223Z,0
2022-08-19T03:00:46.715Z,0
2022-08-19T03:01:40.471Z,0
2022-08-19T03:02:40.205Z,0
2022-08-19T03:03:39.950Z,0
2022-08-19T03:04:40.192Z,0
2022-08-19T03:06:03.410Z,0
2022-08-19T03:06:39.930Z,0
2022-08-19T03:07:39.666Z,0
2022-08-19T03:08:40.424Z,0
2022-08-19T03:09:40.176Z,0
2022-08-19T03:10:40.508Z,0
2022-08-19T03:11:40.160Z,0
2022-08-19T03:12:40.403Z,0
2022-08-19T03:13:39.897Z,0
2022-08-19T03:14:39.883Z,0
2022-08-19T03:15:39.622Z,0
2022-08-19T03:16:40.757Z,0
2022-08-19T03:17:40.128Z,0
2022-08-19T03:18:42.896Z,0
2022-08-19T03:19:40.369Z,0
2022-08-19T03:20:39.850Z,0
2022-08-19T03:21:40.109Z,0
2022-08-19T03:22:40.238Z,0
2022-08-19T03:23:39.586Z,0
2022-08-19T03:24:40.384Z,0
2022-08-19T03:25:39.571Z,0
2022-08-19T03:26:39.819Z,0
2022-08-19T03:27:41.706Z,0
2022-08-19T03:28:40.327Z,0
2022-08-19T03:29:51.796Z,0
2022-08-19T03:30:43.918Z,0
2022-08-19T03:31:57.121Z,0
2022-08-19T03:32:57.035Z,0
2022-08-19T03:50:06.650Z,4
2022-08-19T03:51:06.661Z,4
2022-08-19T03:52:06.906Z,4
2022-08-19T03:53:06.129Z,0
2022-08-19T03:54:06.886Z,4
2022-08-19T03:55:06.377Z,4
2022-08-19T03:56:06.877Z,4
2022-08-19T03:57:06.610Z,4
2022-08-19T03:58:06.343Z,8
2022-08-19T03:59:06.591Z,8
2022-08-19T04:00:19.874Z,8
2022-08-19T04:01:06.785Z,8
2022-08-19T04:02:06.317Z,12
2022-08-19T04:03:08.432Z,12
2022-08-19T04:04:07.905Z,12
2022-08-19T04:05:06.302Z,12
2022-08-19T04:06:06.556Z,12
2022-08-19T04:07:06.548Z,12
2022-08-19T04:08:08.651Z,16
2022-08-19T04:09:06.283Z,16
2022-08-19T04:10:06.536Z,20
2022-08-19T04:11:06.782Z,20
2022-08-19T04:12:06.271Z,24
2022-08-19T04:13:06.251Z,24
2022-08-19T04:14:09.202Z,24
2022-08-19T04:15:06.511Z,24
2022-08-19T04:16:06.238Z,32
2022-08-19T04:17:06.239Z,36
2022-08-19T04:18:06.498Z,40
2022-08-19T04:19:06.680Z,44
2022-08-19T04:20:11.688Z,48
2022-08-19T04:21:06.210Z,52
2022-08-19T04:22:06.522Z,56
2022-08-19T04:23:06.715Z,68
2022-08-19T04:24:08.305Z,76
2022-08-19T04:25:06.445Z,76
2022-08-19T04:26:11.671Z,80
2022-08-19T04:27:06.442Z,84
2022-08-19T04:28:06.426Z,92
2022-08-19T04:29:09.348Z,96
2022-08-19T04:30:06.673Z,116
2022-08-19T04:31:06.677Z,108
2022-08-19T04:32:14.016Z,104
2022-08-19T04:33:06.659Z,112
2022-08-19T04:34:06.153Z,116
2022-08-19T04:35:27.192Z,124
2022-08-19T04:36:06.138Z,132
2022-08-19T04:37:06.380Z,136
2022-08-19T04:38:06.378Z,136
2022-08-19T04:39:06.115Z,140
2022-08-19T04:40:09.271Z,136
2022-08-19T04:41:06.144Z,128
2022-08-19T04:42:06.354Z,136
2022-08-19T04:43:06.351Z,140
2022-08-19T04:44:11.134Z,140
2022-08-19T04:45:09.337Z,144
2022-08-19T04:46:09.958Z,144
2022-08-19T04:47:13.460Z,152
2022-08-19T04:48:37.388Z,156
2022-08-19T04:49:18.117Z,164
2022-08-19T04:50:06.309Z,160
2022-08-19T04:51:06.329Z,168
2022-08-19T04:52:06.053Z,164
2022-08-19T04:53:06.067Z,164
2022-08-19T04:54:06.547Z,160
2022-08-19T04:55:06.034Z,172
2022-08-19T04:56:06.286Z,168
2022-08-19T04:57:06.564Z,168
2022-08-19T04:58:07.328Z,168
2022-08-19T04:59:06.534Z,180
2022-08-19T05:00:06.261Z,184
2022-08-19T05:01:06.859Z,212
2022-08-19T05:02:06.255Z,232
2022-08-19T05:03:12.315Z,212
2022-08-19T05:04:06.239Z,224
2022-08-19T05:05:06.243Z,256
2022-08-19T05:06:06.228Z,292
2022-08-19T05:07:08.061Z,316
2022-08-19T05:08:06.217Z,340
2022-08-19T05:09:08.152Z,336
2022-08-19T05:10:06.058Z,336
2022-08-19T05:11:06.213Z,348
2022-08-19T05:12:05.940Z,356
2022-08-19T05:13:05.934Z,380
2022-08-19T05:14:06.436Z,420
2022-08-19T05:15:06.227Z,552
2022-08-19T05:16:06.425Z,556
2022-08-19T05:17:40.541Z,452
2022-08-19T05:18:06.161Z,476
2022-08-19T05:19:05.649Z,512
2022-08-19T05:20:06.151Z,536
2022-08-19T05:21:06.155Z,520
2022-08-19T05:22:06.144Z,592
2022-08-19T05:23:24.476Z,568
2022-08-19T05:24:05.873Z,520
2022-08-19T05:25:19.688Z,616
2022-08-19T05:26:06.123Z,756
2022-08-19T05:27:06.373Z,608
2022-08-19T05:28:06.113Z,444
2022-08-19T05:29:07.386Z,476
2022-08-19T05:30:06.153Z,600
2022-08-19T05:31:06.356Z,580
2022-08-19T05:32:06.346Z,668
2022-08-19T05:33:06.087Z,744
2022-08-19T05:34:20.613Z,820
2022-08-19T05:35:05.560Z,868
2022-08-19T05:36:06.332Z,808
2022-08-19T05:37:06.067Z,656
2022-08-19T05:38:06.262Z,848
2022-08-19T05:39:06.046Z,660
2022-08-19T05:40:06.413Z,668
2022-08-19T05:41:05.534Z,680
2022-08-19T05:42:06.303Z,720
2022-08-19T05:43:05.774Z,788
2022-08-19T05:44:05.792Z,1040
2022-08-19T05:45:06.028Z,844
2022-08-19T05:46:06.275Z,796
2022-08-19T05:47:06.014Z,948
2022-08-19T05:48:06.008Z,1028
2022-08-19T05:49:06.003Z,988
2022-08-19T05:50:07.353Z,1040
2022-08-19T05:51:05.990Z,1000
2022-08-19T05:52:05.730Z,928
2022-08-19T05:53:06.239Z,876
2022-08-19T05:54:05.974Z,912
2022-08-19T05:55:05.967Z,1044
2022-08-19T05:56:05.754Z,996
2022-08-19T05:57:05.701Z,1004
2022-08-19T05:58:05.959Z,1048
2022-08-19T05:59:06.538Z,1168
2022-08-19T06:00:05.999Z,1180
2022-08-19T06:01:05.686Z,1176
2022-08-19T06:02:05.685Z,1252
2022-08-19T06:03:16.700Z,1296
2022-08-19T06:04:05.667Z,1228
2022-08-19T06:05:05.921Z,1116
2022-08-19T06:06:05.654Z,988
2022-08-19T06:07:17.038Z,892
2022-08-19T06:08:05.903Z,984
2022-08-19T06:09:05.898Z,1084
2022-08-19T06:10:07.614Z,920
2022-08-19T06:11:06.144Z,884
2022-08-19T06:12:05.878Z,944
2022-08-19T06:13:05.622Z,1008
2022-08-19T06:14:07.115Z,1124
2022-08-19T06:15:08.319Z,1112
2022-08-19T06:16:05.860Z,1052
2022-08-19T06:17:11.135Z,976
2022-08-19T06:18:05.850Z,932
2022-08-19T06:19:05.841Z,900
2022-08-19T06:20:05.331Z,888
2022-08-19T06:21:05.832Z,848
2022-08-19T06:22:06.626Z,816
2022-08-19T06:23:05.317Z,796
2022-08-19T06:24:06.074Z,856
2022-08-19T06:25:05.810Z,844
2022-08-19T06:26:05.809Z,888
2022-08-19T06:27:08.153Z,920
2022-08-19T06:28:22.805Z,916
2022-08-19T06:29:05.544Z,916
2022-08-19T06:30:05.796Z,848
2022-08-19T06:31:05.539Z,796
2022-08-19T06:32:05.775Z,864
2022-08-19T06:33:05.516Z,916
2022-08-19T06:34:08.588Z,924
2022-08-19T06:35:05.508Z,1056
2022-08-19T06:36:06.018Z,1312
2022-08-19T06:37:05.761Z,1524
2022-08-19T06:38:05.799Z,1552
2022-08-19T06:39:05.484Z,1448
2022-08-19T06:40:05.768Z,1360
2022-08-19T06:41:10.323Z,1388
2022-08-19T06:42:06.574Z,1420
2022-08-19T06:43:11.983Z,1524
2022-08-19T06:44:05.797Z,1696
2022-08-19T06:45:14.091Z,1772
2022-08-19T06:46:06.078Z,1976
2022-08-19T06:47:23.332Z,2144
2022-08-19T06:48:06.082Z,2152
2022-08-19T06:49:07.810Z,2128
2022-08-19T06:50:08.315Z,2032
2022-08-19T06:51:10.837Z,1712
2022-08-19T06:52:06.758Z,1500
2022-08-19T06:53:11.864Z,1348
2022-08-19T06:54:05.434Z,1292
2022-08-19T06:55:10.765Z,1144
2022-08-19T06:56:05.658Z,1116
2022-08-19T06:57:05.660Z,1236
2022-08-19T06:58:05.149Z,1236
2022-08-19T06:59:05.391Z,1180
2022-08-19T07:00:07.129Z,1136
2022-08-19T07:01:11.390Z,1116
2022-08-19T07:02:05.670Z,1040
2022-08-19T07:03:16.272Z,1060
2022-08-19T07:04:06.192Z,996
2022-08-19T07:05:09.007Z,1008
2022-08-19T07:06:09.781Z,1036
2022-08-19T07:07:25.120Z,1056
2022-08-19T07:08:11.196Z,1044
2022-08-19T07:09:05.613Z,1004
2022-08-19T07:10:12.318Z,960
2022-08-19T07:11:11.534Z,928
2022-08-19T07:12:11.529Z,852
2022-08-19T07:13:05.578Z,836
2022-08-19T07:14:06.007Z,828
2022-08-19T07:15:05.967Z,840
2022-08-19T07:16:15.187Z,908
2022-08-19T07:17:06.290Z,1020
2022-08-19T07:18:06.616Z,1112
2022-08-19T07:19:21.405Z,1168
2022-08-19T07:20:14.739Z,1212
2022-08-19T07:21:06.219Z,1224
2022-08-19T07:22:05.816Z,1140
2022-08-19T07:23:09.614Z,1092
2022-08-19T07:24:09.889Z,1124
2022-08-19T07:25:05.260Z,1212
2022-08-19T07:26:05.786Z,1336
2022-08-19T07:27:15.108Z,1440
2022-08-19T07:28:08.446Z,1324
2022-08-19T07:29:06.323Z,1340
2022-08-19T07:30:06.698Z,1240
2022-08-19T07:31:05.012Z,1252
2022-08-19T07:32:06.845Z,1348
2022-08-19T07:33:08.416Z,1540
2022-08-19T07:34:05.494Z,1636
2022-08-19T07:35:05.478Z,1504
2022-08-19T07:36:05.207Z,1588
2022-08-19T07:37:05.205Z,1512
2022-08-19T07:38:05.462Z,1548
2022-08-19T07:39:05.704Z,1540
2022-08-19T07:40:05.273Z,1556
2022-08-19T07:41:05.443Z,1696
2022-08-19T07:42:05.192Z,1772
2022-08-19T07:43:05.169Z,2012
2022-08-19T07:44:04.912Z,2276
2022-08-19T07:45:05.693Z,2292
2022-08-19T07:46:06.217Z,2360
2022-08-19T07:47:07.241Z,2256
2022-08-19T07:48:07.794Z,2380
2022-08-19T07:49:06.579Z,2352
2022-08-19T07:50:06.060Z,2284
2022-08-19T07:51:06.070Z,2264
2022-08-19T07:52:05.779Z,1848
2022-08-19T07:53:06.028Z,1652
2022-08-19T07:54:06.026Z,1672
2022-08-19T07:55:06.020Z,1744
2022-08-19T07:56:05.752Z,2196
2022-08-19T07:57:06.021Z,2028
2022-08-19T07:58:07.970Z,1876
2022-08-19T07:59:06.003Z,1756
2022-08-19T08:00:05.998Z,1532
2022-08-19T08:01:06.249Z,1204
2022-08-19T08:02:06.441Z,1032
2022-08-19T08:03:06.241Z,1048
2022-08-19T08:04:08.854Z,1124
2022-08-19T08:05:06.242Z,1388
2022-08-19T08:06:05.982Z,1428
2022-08-19T08:07:05.968Z,1352
2022-08-19T08:08:05.958Z,1508
2022-08-19T08:09:09.442Z,1784
2022-08-19T08:10:24.364Z,1852
2022-08-19T08:11:10.003Z,2100
2022-08-19T08:12:37.304Z,2788
2022-08-19T08:13:17.522Z,2488
2022-08-19T08:14:35.032Z,2428
2022-08-19T08:15:12.388Z,2480
2022-08-19T08:16:06.878Z,2640
2022-08-19T08:17:13.325Z,2864
2022-08-19T08:18:06.926Z,2540
2022-08-19T08:19:20.697Z,2668
2022-08-19T08:20:06.155Z,2396
2022-08-19T08:21:06.177Z,2492
2022-08-19T08:22:06.156Z,2708
2022-08-19T08:23:06.149Z,2504
2022-08-19T08:24:06.207Z,2392
2022-08-19T08:25:08.790Z,2348
2022-08-19T08:26:06.128Z,2304
2022-08-19T08:27:13.491Z,2404
2022-08-19T08:28:06.611Z,2308
2022-08-19T08:29:15.411Z,2396
2022-08-19T08:30:09.901Z,2084
2022-08-19T08:31:12.142Z,2176
2022-08-19T08:32:17.245Z,2796
2022-08-19T08:33:07.513Z,2480
2022-08-19T08:34:05.834Z,2356
2022-08-19T08:35:05.842Z,1980
2022-08-19T08:36:08.278Z,2816
2022-08-19T08:37:05.827Z,2404
2022-08-19T08:38:06.334Z,2516
2022-08-19T08:39:05.921Z,2848
2022-08-19T08:40:06.638Z,2812
2022-08-19T08:41:05.808Z,2828
2022-08-19T08:42:20.043Z,2492
2022-08-19T08:43:06.822Z,2452
2022-08-19T08:44:06.295Z,2600
2022-08-19T08:45:06.986Z,2928
2022-08-19T08:46:05.816Z,3240
2022-08-19T08:47:06.053Z,3048
2022-08-19T08:48:24.377Z,2872
2022-08-19T08:49:07.628Z,2652
2022-08-19T08:50:06.804Z,2592
2022-08-19T08:51:11.673Z,2776
2022-08-19T08:52:07.431Z,2392
2022-08-19T08:53:07.162Z,2252
2022-08-19T08:54:06.008Z,1932
2022-08-19T08:55:12.444Z,1664
2022-08-19T08:56:05.998Z,1540
2022-08-19T08:57:06.255Z,1592
2022-08-19T08:58:05.725Z,1800
2022-08-19T08:59:05.727Z,1984
2022-08-19T09:00:07.690Z,2216
2022-08-19T09:01:06.005Z,2016
2022-08-19T09:02:06.151Z,1768
2022-08-19T09:03:06.856Z,2128
2022-08-19T09:04:09.758Z,2320
2022-08-19T09:05:09.524Z,2136
2022-08-19T09:06:06.061Z,2384
2022-08-19T09:07:38.793Z,2620
2022-08-19T09:08:08.957Z,2600
2022-08-19T09:09:14.489Z,2440
2022-08-19T09:10:07.006Z,2316
2022-08-19T09:11:11.166Z,2156
2022-08-19T09:12:07.027Z,2204
2022-08-19T09:13:11.578Z,2540
2022-08-19T09:14:05.911Z,2684
2022-08-19T09:15:05.646Z,2544
2022-08-19T09:16:05.645Z,2392
2022-08-19T09:17:05.888Z,2748
2022-08-19T09:18:09.513Z,2712
2022-08-19T09:19:08.886Z,2736
2022-08-19T09:20:09.013Z,2696
2022-08-19T09:21:05.884Z,2844
2022-08-19T09:22:06.148Z,3424
2022-08-19T09:23:07.304Z,3524
2022-08-19T09:24:08.350Z,2732
2022-08-19T09:25:06.950Z,2540
2022-08-19T09:26:05.985Z,2444
2022-08-19T09:27:20.392Z,2824
2022-08-19T09:28:25.540Z,3444
2022-08-19T09:29:05.851Z,4180
2022-08-19T09:30:06.448Z,3552
2022-08-19T09:31:05.836Z,2600
2022-08-19T09:32:05.574Z,2700
2022-08-19T09:33:05.563Z,3116
2022-08-19T09:34:08.308Z,3424
2022-08-19T09:35:11.079Z,4152
2022-08-19T09:36:10.753Z,2824
2022-08-19T09:37:06.073Z,2964
2022-08-19T09:38:07.892Z,3208
2022-08-19T09:39:18.381Z,3244
2022-08-19T09:40:07.097Z,3308
2022-08-19T09:41:05.568Z,3280
2022-08-19T09:42:06.358Z,3356
2022-08-19T09:43:15.634Z,3652
2022-08-19T09:44:05.711Z,3392
2022-08-19T09:45:12.683Z,3808
2022-08-19T09:46:05.512Z,4328
2022-08-19T09:47:06.026Z,4488
2022-08-19T09:48:06.593Z,5496
2022-08-19T09:49:15.553Z,6792
2022-08-19T09:50:05.519Z,5560
2022-08-19T09:51:07.436Z,6016
2022-08-19T09:52:06.011Z,5016
2022-08-19T09:53:05.494Z,5232
2022-08-19T09:54:13.674Z,4576
2022-08-19T09:55:11.511Z,4336
2022-08-19T09:56:10.693Z,3788
2022-08-19T09:57:10.167Z,4360
2022-08-19T09:58:06.073Z,5068
2022-08-19T09:59:05.205Z,5488
2022-08-19T10:00:05.639Z,5164
2022-08-19T10:01:06.446Z,4712
2022-08-19T10:02:24.716Z,4516
2022-08-19T10:03:09.250Z,4708
2022-08-19T10:04:22.461Z,3828
2022-08-19T10:05:08.520Z,4484
2022-08-19T10:06:06.127Z,4240
2022-08-19T10:07:07.950Z,3656
2022-08-19T10:08:15.797Z,3548
2022-08-19T10:09:11.121Z,3332
2022-08-19T10:10:06.366Z,3396
2022-08-19T10:11:46.955Z,3040
2022-08-19T10:12:13.833Z,3420
2022-08-19T10:13:07.576Z,3188
2022-08-19T10:14:06.456Z,3052
2022-08-19T10:15:06.337Z,3600
2022-08-19T10:16:06.851Z,3428
2022-08-19T10:17:26.837Z,3256
2022-08-19T10:18:07.583Z,3124
2022-08-19T10:19:10.698Z,2740
2022-08-19T10:20:06.827Z,2776
2022-08-19T10:21:06.073Z,2524
2022-08-19T10:22:12.193Z,2424
2022-08-19T10:23:07.493Z,2340
2022-08-19T10:24:07.104Z,2240
2022-08-19T10:25:06.303Z,2968
2022-08-19T10:26:06.733Z,3236
2022-08-19T10:27:07.136Z,3292
2022-08-19T10:28:05.520Z,4160
2022-08-19T10:29:09.165Z,3924
2022-08-19T10:30:12.169Z,3584
2022-08-19T10:31:07.007Z,3620
2022-08-19T10:32:12.325Z,3296
2022-08-19T10:33:13.838Z,4464
2022-08-19T10:34:26.762Z,4020
2022-08-19T10:35:08.562Z,4152
2022-08-19T10:36:05.817Z,4156
2022-08-19T10:37:14.386Z,4144
2022-08-19T10:38:12.366Z,4836
2022-08-19T10:39:05.994Z,5104
2022-08-19T10:40:06.314Z,4668
2022-08-19T10:41:05.717Z,5416
2022-08-19T10:42:05.717Z,6340
2022-08-19T10:43:05.454Z,5144
2022-08-19T10:44:11.134Z,4236
2022-08-19T10:45:10.036Z,3776
2022-08-19T10:46:05.963Z,4392
2022-08-19T10:47:24.546Z,5240
2022-08-19T10:48:07.149Z,4580
2022-08-19T10:49:07.627Z,3548
2022-08-19T10:50:06.758Z,4040
2022-08-19T10:51:06.359Z,3440
2022-08-19T10:52:12.303Z,3628
2022-08-19T10:53:12.832Z,6204
2022-08-19T10:54:14.533Z,6720
2022-08-19T10:55:13.305Z,6552
2022-08-19T10:56:05.923Z,7680
2022-08-19T10:57:05.898Z,8436
2022-08-19T10:58:13.030Z,7212
2022-08-19T10:59:05.830Z,6244
2022-08-19T11:00:05.896Z,6672
2022-08-19T11:01:05.948Z,8092
2022-08-19T11:02:06.005Z,10184
2022-08-19T11:03:05.883Z,11360
2022-08-19T11:04:06.133Z,8692
2022-08-19T11:05:18.192Z,8396
2022-08-19T11:06:05.617Z,10472
2022-08-19T11:07:06.118Z,8636
2022-08-19T11:08:27.045Z,8028
2022-08-19T11:09:06.114Z,6792
2022-08-19T11:10:06.364Z,7856
2022-08-19T11:11:06.108Z,4948
2022-08-19T11:12:10.271Z,3948
2022-08-19T11:13:05.586Z,3720
2022-08-19T11:14:05.858Z,3748
2022-08-19T11:15:05.838Z,3628
2022-08-19T11:16:12.434Z,3052
2022-08-19T11:17:05.835Z,2868
2022-08-19T11:18:06.862Z,3228
2022-08-19T11:19:05.571Z,3340
2022-08-19T11:20:05.821Z,2748
2022-08-19T11:21:06.072Z,2592
2022-08-19T11:22:08.174Z,2404
2022-08-19T11:23:09.000Z,2196
2022-08-19T11:24:05.563Z,2784
2022-08-19T11:25:05.550Z,2440
2022-08-19T11:26:05.806Z,2856
2022-08-19T11:27:05.288Z,2496
2022-08-19T11:28:05.551Z,2732
2022-08-19T11:29:05.794Z,2540
2022-08-19T11:30:06.631Z,2652
2022-08-19T11:31:05.527Z,2296
2022-08-19T11:32:05.782Z,2100
2022-08-19T11:33:05.778Z,1652
2022-08-19T11:34:05.532Z,1716
2022-08-19T11:35:05.530Z,1476
2022-08-19T11:36:05.538Z,1568
2022-08-19T11:37:05.506Z,1648
2022-08-19T11:38:09.900Z,2184
2022-08-19T11:39:05.754Z,2252
2022-08-19T11:40:05.754Z,2256
2022-08-19T11:41:06.021Z,2224
2022-08-19T11:42:05.488Z,2216
2022-08-19T11:43:05.731Z,1884
2022-08-19T11:44:05.477Z,1704
2022-08-19T11:45:05.731Z,1764
2022-08-19T11:46:05.723Z,1756
2022-08-19T11:47:16.326Z,1700
2022-08-19T11:48:05.973Z,1620
2022-08-19T11:49:05.711Z,1744
2022-08-19T11:50:05.463Z,2048
2022-08-19T11:51:05.448Z,2364
2022-08-19T11:52:05.446Z,2552
2022-08-19T11:53:08.190Z,2652
2022-08-19T11:54:05.716Z,3336
2022-08-19T11:55:05.434Z,3704
2022-08-19T11:56:05.476Z,4244
2022-08-19T11:57:05.426Z,4420
2022-08-19T11:58:06.024Z,4308
2022-08-19T11:59:06.021Z,3860
2022-08-19T12:00:06.811Z,4492
2022-08-19T12:01:06.516Z,3680
2022-08-19T12:02:07.288Z,3160
2022-08-19T12:03:08.750Z,2824
2022-08-19T12:04:07.518Z,2504
2022-08-19T12:05:12.463Z,2436
2022-08-19T12:06:07.017Z,2172
2022-08-19T12:07:06.743Z,2540
2022-08-19T12:08:07.013Z,2632
2022-08-19T12:09:07.752Z,2708
2022-08-19T12:10:08.253Z,2632
2022-08-19T12:11:06.997Z,2644
2022-08-19T12:12:07.251Z,2416
2022-08-19T12:13:06.998Z,2424
2022-08-19T12:14:06.781Z,2472
2022-08-19T12:15:07.022Z,2240
2022-08-19T12:16:06.449Z,2192
2022-08-19T12:17:06.965Z,2184
2022-08-19T12:18:07.917Z,2028
2022-08-19T12:19:07.332Z,1872
2022-08-19T12:20:06.429Z,1884
2022-08-19T12:21:06.700Z,1876
2022-08-19T12:22:06.936Z,1960
2022-08-19T12:23:06.934Z,1944
2022-08-19T12:24:06.929Z,1912
2022-08-19T12:25:07.018Z,1820
2022-08-19T12:26:06.412Z,1852
2022-08-19T12:27:35.793Z,1796
2022-08-19T12:28:08.843Z,1772
2022-08-19T12:29:06.651Z,1808
2022-08-19T12:30:06.661Z,1860
2022-08-19T12:31:06.893Z,1968
2022-08-19T12:32:08.406Z,1956
2022-08-19T12:33:06.959Z,2000
2022-08-19T12:34:06.956Z,1932
2022-08-19T12:35:07.255Z,1948
2022-08-19T12:36:06.695Z,1896
2022-08-19T12:37:06.942Z,1812
2022-08-19T12:38:07.330Z,1664
2022-08-19T12:39:06.934Z,1540
2022-08-19T12:40:07.187Z,1456
2022-08-19T12:41:07.765Z,1424
2022-08-19T12:42:06.917Z,1508
2022-08-19T12:43:09.772Z,1500
2022-08-19T12:44:12.797Z,1612
2022-08-19T12:45:10.660Z,1700
2022-08-19T12:46:07.277Z,1740
2022-08-19T12:47:12.492Z,2052
2022-08-19T12:48:42.210Z,2104
2022-08-19T12:49:58.035Z,2192
2022-08-19T12:50:14.251Z,2140
2022-08-19T12:51:11.566Z,2200
2022-08-19T12:52:11.306Z,2324
2022-08-19T12:53:12.079Z,2472
2022-08-19T12:54:11.802Z,2564
2022-08-19T12:55:12.052Z,3104
2022-08-19T12:56:20.037Z,3528
2022-08-19T12:57:11.528Z,3504
2022-08-19T12:58:12.039Z,3508
2022-08-19T12:59:11.779Z,3216
2022-08-19T13:00:12.738Z,3588
2022-08-19T13:01:12.074Z,3544
2022-08-19T13:02:11.772Z,3516
2022-08-19T13:03:11.510Z,3412
2022-08-19T13:04:11.244Z,4240
2022-08-19T13:05:11.879Z,4628
2022-08-19T13:06:11.847Z,4732
2022-08-19T13:07:11.487Z,4944
2022-08-19T13:08:11.746Z,5240
2022-08-19T13:09:11.737Z,5456
2022-08-19T13:10:11.625Z,6440
2022-08-19T13:11:13.144Z,6084
2022-08-19T13:12:11.214Z,6024
2022-08-19T13:13:11.716Z,6004
2022-08-19T13:14:11.707Z,6328
2022-08-19T13:15:23.924Z,5780
2022-08-19T13:16:11.700Z,5636
2022-08-19T13:17:11.448Z,5856
2022-08-19T13:18:11.695Z,5720
2022-08-19T13:19:11.438Z,6472
2022-08-19T13:20:11.800Z,6596
2022-08-19T13:21:11.680Z,5428
2022-08-19T13:22:20.352Z,4620
2022-08-19T13:23:11.419Z,4560
2022-08-19T13:24:11.669Z,4924
2022-08-19T13:25:11.926Z,4352
2022-08-19T13:26:11.530Z,3636
2022-08-19T13:27:11.664Z,3596
2022-08-19T13:28:14.953Z,3804
2022-08-19T13:29:11.907Z,4340
2022-08-19T13:30:11.897Z,3828
2022-08-19T13:31:12.250Z,3408
2022-08-19T13:32:22.448Z,3080
2022-08-19T13:33:12.531Z,2804
2022-08-19T13:34:12.483Z,2632
2022-08-19T13:35:16.926Z,2612
2022-08-19T13:36:13.259Z,2872
2022-08-19T13:37:12.729Z,2856
2022-08-19T13:38:16.901Z,2800
2022-08-19T13:39:12.731Z,3180
2022-08-19T13:40:12.859Z,3388
2022-08-19T13:41:19.477Z,3660
2022-08-19T13:42:12.462Z,4084
2022-08-19T13:43:29.185Z,4300
2022-08-19T13:44:12.189Z,4612
2022-08-19T13:45:12.446Z,4584
2022-08-19T13:46:11.921Z,5044
2022-08-19T13:47:12.176Z,4932
2022-08-19T13:48:14.764Z,4936
2022-08-19T13:49:12.161Z,4352
2022-08-19T13:50:12.703Z,4464
2022-08-19T13:51:12.155Z,5140
2022-08-19T13:52:12.150Z,5196
2022-08-19T13:53:12.404Z,4524
2022-08-19T13:54:12.565Z,4092
2022-08-19T13:55:12.401Z,3428
2022-08-19T13:56:12.390Z,3024
2022-08-19T13:57:12.658Z,2768
2022-08-19T13:58:12.129Z,2716
2022-08-19T13:59:12.123Z,2856
2022-08-19T14:00:12.150Z,3220
2022-08-19T14:01:12.953Z,3232
2022-08-19T14:02:12.360Z,3684
2022-08-19T14:03:15.946Z,3888